Terminal Aerodrome Forecast
Issued by NWS

Home | Current Version | Previous Version | Text Only | Print | Product List | Glossary On
Versions: 1 2 3 4 5 6 7 8 9 10 11 12 13 14
156
FTPA31 PHFO 091004 AAB
TAFHKO
TAF AMD
PHKO 091004Z 0910/1006 03005KT P6SM VCSH SCT015 OVC050
      TEMPO 0910/0914 3SM SHRA BR BKN015
     FM092000 21010KT P6SM FEW025 BKN050
     FM100200 26008KT P6SM SCT025 BKN045=

USA.gov is the U.S. government's official web portal to all federal, state and local government web resources and services.